Time;durP1;ratioP1;P1;durP2;ratioP2;P2;SDS_P1;SDS_P2;PMS_P1;PMS_P2;Temp;Humidity;BMP_temperature;BMP_pressure;BME280_temperature;BME280_humidity;BME280_pressure;Samples;Min_cycle;Max_cycle;Signal;HPM_P1;HPM_P2
2023/08/10 00:00:30;;;;;;;5.50;2.90;;;13.10;99.90;;;-141.84;74.94;20265.03;5056516;28;20224;-61
2023/08/10 00:02:59;;;;;;;4.30;2.90;;;13.20;99.90;;;-141.84;74.71;20279.28;5064340;28;20232;-62
2023/08/10 00:05:29;;;;;;;4.38;3.30;;;13.20;99.90;;;-141.84;74.45;20258.94;5063763;28;20608;-61
2023/08/10 00:07:57;;;;;;;2.97;2.70;;;13.20;99.90;;;-141.84;75.35;20244.72;5063778;28;20236;-61
2023/08/10 00:10:25;;;;;;;4.87;3.27;;;13.20;99.90;;;-141.84;75.99;20265.03;5055986;28;20622;-61
2023/08/10 00:12:54;;;;;;;4.80;3.10;;;13.10;99.90;;;-141.84;76.52;20242.69;5064007;28;20262;-62
2023/08/10 00:15:22;;;;;;;3.38;3.03;;;13.10;99.90;;;-141.84;76.79;20242.69;5062532;28;20259;-62
2023/08/10 00:17:50;;;;;;;4.33;3.03;;;13.00;99.90;;;-141.84;76.80;20220.34;5063392;28;20233;-62
2023/08/10 00:20:19;;;;;;;3.40;3.10;;;;;;;-141.84;76.90;20208.13;5060009;28;20227;-61
2023/08/10 00:22:48;;;;;;;3.40;3.10;;;12.70;99.90;;;-141.84;77.23;20161.38;5046995;28;20332;-62
2023/08/10 00:25:16;;;;;;;5.07;3.33;;;12.90;99.90;;;-141.84;77.61;20208.13;5043792;28;20324;-63
2023/08/10 00:27:45;;;;;;;4.30;3.20;;;12.90;99.90;;;-141.84;78.04;20200.00;5052458;28;20213;-61
2023/08/10 00:30:13;;;;;;;4.30;3.10;;;12.90;99.90;;;-141.84;78.27;20173.59;5062386;28;20220;-63
2023/08/10 00:32:41;;;;;;;3.43;3.13;;;12.80;99.90;;;-141.84;78.60;20169.53;5055159;28;20302;-62
2023/08/10 00:35:10;;;;;;;4.22;3.10;;;12.80;99.90;;;-141.84;78.19;20212.19;5063579;28;20243;-62
2023/08/10 00:37:38;;;;;;;3.30;3.00;;;12.80;99.90;;;-141.84;78.43;20179.69;5063405;28;20252;-62
2023/08/10 00:40:12;;;;;;;4.30;2.90;;;12.80;99.90;;;-141.84;77.07;20200.00;5063192;28;20382;-62
2023/08/10 00:42:40;;;;;;;2.77;2.40;;;12.80;99.90;;;-141.84;76.56;20187.81;5055607;28;20638;-63
2023/08/10 00:45:10;;;;;;;3.20;2.50;;;12.70;99.90;;;-141.84;76.60;20167.47;5062904;28;20586;-62
2023/08/10 00:47:40;;;;;;;3.20;2.57;;;12.70;99.90;;;-141.84;77.17;20169.53;5063229;28;20229;-62
2023/08/10 00:50:10;;;;;;;3.47;2.77;;;12.70;99.90;;;-141.84;76.67;20189.84;5062910;28;20236;-62
2023/08/10 00:52:39;;;;;;;4.43;2.60;;;12.70;99.90;;;-141.84;76.79;20187.81;5040094;28;20510;-61
2023/08/10 00:55:09;;;;;;;3.67;2.50;;;12.70;99.90;;;-141.84;76.67;20206.09;5043232;28;20236;-62
2023/08/10 00:57:38;;;;;;;2.47;2.27;;;12.70;99.90;;;-141.84;75.99;20179.69;5051175;28;20240;-62
2023/08/10 01:00:10;;;;;;;3.03;2.20;;;12.60;99.90;;;-141.84;75.76;20155.28;5062312;28;20354;-62
2023/08/10 01:02:39;;;;;;;4.33;2.70;;;12.60;99.90;;;-141.84;75.31;20179.69;5055377;28;20758;-61
2023/08/10 01:05:10;;;;;;;2.30;2.10;;;12.60;99.90;;;-141.84;75.46;20193.91;5062704;28;20243;-62
2023/08/10 01:07:51;;;;;;;3.23;2.30;;;12.60;99.90;;;-141.84;75.77;20143.09;5063087;28;20233;-61
2023/08/10 01:10:35;;;;;;;2.90;2.33;;;12.50;99.90;;;-141.84;75.98;20143.09;5055215;28;20675;-63
2023/08/10 01:13:20;;;;;;;2.50;1.97;;;12.50;99.90;;;-141.84;75.35;20161.38;5062976;28;20306;-63
2023/08/10 01:15:54;;;;;;;2.57;2.13;;;12.50;99.90;;;-141.84;75.32;20151.22;5063071;28;20688;-61
2023/08/10 01:18:28;;;;;;;2.90;2.60;;;12.50;99.90;;;-141.84;75.56;20167.47;5054624;28;20255;-63
2023/08/10 01:21:00;;;;;;;2.43;2.23;;;12.50;99.90;;;-141.84;75.93;20143.09;5062359;28;20240;-62
2023/08/10 01:23:36;;;;;;;2.93;2.17;;;12.50;99.90;;;-141.84;76.08;20169.53;5062505;28;20229;-62
2023/08/10 01:26:06;;;;;;;2.93;2.43;;;12.50;99.90;;;-141.84;75.88;20167.47;5062258;28;20285;-62
2023/08/10 01:28:36;;;;;;;3.83;2.00;;;12.50;99.90;;;-141.84;76.58;20134.97;5054450;28;20227;-60
2023/08/10 01:31:05;;;;;;;5.87;2.73;;;12.40;99.90;;;-141.84;76.68;20147.16;5062082;28;20205;-61
2023/08/10 01:33:34;;;;;;;2.37;2.17;;;12.40;99.90;;;-141.84;75.88;20163.41;5062826;28;20205;-61
2023/08/10 01:36:02;;;;;;;4.00;2.37;;;12.40;99.90;;;-141.84;75.40;20159.34;5048656;28;20659;-61
2023/08/10 01:38:31;;;;;;;2.60;2.40;;;12.40;99.90;;;-141.84;75.42;20118.69;5034897;28;20359;-62
2023/08/10 01:40:59;;;;;;;3.30;2.77;;;12.30;99.90;;;-141.84;75.01;20112.59;5042702;28;20229;-62
2023/08/10 01:43:28;;;;;;;3.17;2.30;;;12.30;99.90;;;-141.84;75.29;20116.66;5040531;28;20712;-62
2023/08/10 01:45:57;;;;;;;2.63;2.33;;;12.30;99.90;;;-141.84;75.52;20118.69;5042642;28;20311;-62
2023/08/10 01:48:30;;;;;;;2.70;2.07;;;12.30;99.90;;;-141.84;75.26;20143.09;5034678;28;20229;-61
2023/08/10 01:51:03;;;;;;;3.03;2.20;;;12.30;99.90;;;-141.84;76.26;20126.84;5041764;28;20267;-62
2023/08/10 01:53:36;;;;;;;2.47;2.17;;;12.20;99.90;;;-141.84;76.97;20114.63;5042166;28;20264;-62
2023/08/10 01:56:05;;;;;;;4.80;2.50;;;12.20;99.90;;;-141.84;77.38;20080.09;5045090;28;20233;-61
2023/08/10 01:58:35;;;;;;;2.30;2.10;;;12.10;99.90;;;-141.84;77.00;20090.25;5054025;28;20311;-62
2023/08/10 02:01:03;;;;;;;2.37;2.17;;;12.10;99.90;;;-141.84;77.18;20090.25;5066242;28;20200;-61
2023/08/10 02:03:32;;;;;;;3.00;2.40;;;12.10;99.90;;;-141.84;77.45;20086.19;5064319;28;20255;-62
2023/08/10 02:06:00;;;;;;;3.00;2.60;;;12.00;99.90;;;-141.84;77.62;20100.41;5065489;28;20323;-61
2023/08/10 02:08:28;;;;;;;3.13;2.60;;;12.10;99.90;;;-141.84;78.08;20090.25;5057849;28;20231;-61
2023/08/10 02:10:56;;;;;;;2.63;2.33;;;12.00;99.90;;;-141.84;78.18;20074.00;5056400;28;20251;-61
2023/08/10 02:13:25;;;;;;;3.57;2.20;;;12.00;99.90;;;-141.84;78.27;20102.44;5049494;28;20221;-62
2023/08/10 02:15:54;;;;;;;2.83;2.47;;;12.00;99.90;;;-141.84;77.78;20102.44;5046771;28;20233;-61
2023/08/10 02:18:23;;;;;;;3.67;2.37;;;12.10;99.90;;;-141.84;77.69;20076.03;5038451;28;20308;-60
2023/08/10 02:20:51;;;;;;;3.30;2.93;;;12.00;99.90;;;-141.84;77.83;20069.94;5064592;28;20266;-62
2023/08/10 02:23:19;;;;;;;2.90;2.27;;;12.00;99.90;;;-141.84;78.01;20096.34;5066403;28;20606;-62
2023/08/10 02:25:47;;;;;;;3.07;2.30;;;12.00;99.90;;;-141.84;78.81;20069.94;5065486;28;20315;-62
2023/08/10 02:28:15;;;;;;;3.07;2.67;;;12.00;99.90;;;-141.84;78.93;20065.84;5065775;28;20664;-62
2023/08/10 02:30:43;;;;;;;3.13;2.50;;;11.90;99.90;;;-141.84;79.45;20078.06;5064153;28;20208;-62
2023/08/10 02:33:13;;;;;;;3.07;2.40;;;11.90;99.90;;;-141.84;79.00;20134.97;5065412;28;20256;-62
2023/08/10 02:35:41;;;;;;;2.77;2.47;;;12.00;99.90;;;-141.84;79.07;20053.66;5065038;28;20264;-61
2023/08/10 02:38:09;;;;;;;5.83;2.70;;;12.00;99.90;;;-141.84;79.37;20053.66;5065018;28;20236;-61
2023/08/10 02:40:38;;;;;;;3.80;2.37;;;11.90;99.90;;;-141.84;80.00;20069.94;5057851;28;21074;-62
2023/08/10 02:43:06;;;;;;;2.90;2.60;;;11.80;99.90;;;-141.84;80.07;20082.13;5065056;28;20211;-62
2023/08/10 02:45:34;;;;;;;3.47;2.47;;;11.80;99.90;;;-141.84;79.68;20096.34;5065850;28;20311;-61
2023/08/10 02:48:02;;;;;;;3.23;2.50;;;11.90;99.90;;;-141.84;79.82;20043.50;5065495;28;20591;-61
2023/08/10 02:50:32;;;;;;;3.00;2.43;;;11.90;99.90;;;-141.84;80.51;20051.63;5056788;28;20248;-62
2023/08/10 02:53:00;;;;;;;3.23;2.60;;;11.90;99.90;;;-141.84;81.24;20029.28;5065601;28;20232;-62
2023/08/10 02:55:29;;;;;;;4.83;2.40;;;11.90;99.90;;;-141.84;81.21;20055.69;5065383;28;20661;-61
2023/08/10 02:57:58;;;;;;;2.53;2.30;;;11.90;99.90;;;-141.84;81.36;20059.75;5065433;28;20290;-62
2023/08/10 03:00:26;;;;;;;4.10;2.30;;;11.90;99.90;;;-141.84;81.76;20023.19;5057353;28;20224;-61
2023/08/10 03:02:54;;;;;;;5.20;2.47;;;11.90;99.90;;;-141.84;81.37;20067.88;5065050;28;20237;-60
2023/08/10 03:05:23;;;;;;;3.90;2.20;;;11.90;99.90;;;-141.84;81.21;20071.97;5064323;28;20274;-61
2023/08/10 03:07:52;;;;;;;4.53;2.27;;;12.00;99.90;;;-141.84;80.37;20074.00;5065036;28;20313;-61
2023/08/10 03:10:21;;;;;;;4.00;2.57;;;12.10;99.90;;;-141.84;80.16;20110.56;5057514;28;20236;-61
2023/08/10 03:12:49;;;;;;;2.97;1.90;;;12.10;99.90;;;-141.84;80.57;20049.59;5064015;28;20271;-62
2023/08/10 03:15:17;;;;;;;2.30;2.10;;;12.00;99.90;;;-141.84;81.20;20041.47;5045010;28;20794;-60
2023/08/10 03:17:45;;;;;;;3.10;2.07;;;12.00;99.90;;;-141.84;81.73;20013.00;5044856;28;20236;-62
2023/08/10 03:20:16;;;;;;;3.13;2.00;;;11.90;99.90;;;-141.84;81.40;20074.00;5057886;28;20381;-62
2023/08/10 03:22:45;;;;;;;2.83;2.10;;;11.90;99.90;;;-141.84;81.59;20045.53;5062149;28;20232;-62
2023/08/10 03:25:15;;;;;;;2.90;2.20;;;11.90;99.90;;;-141.84;81.52;20023.19;5064635;28;20220;-61
2023/08/10 03:27:43;;;;;;;2.33;1.80;;;11.80;99.90;;;-141.84;81.78;20031.31;5065103;28;20212;-62
2023/08/10 03:30:13;;;;;;;2.27;1.90;;;11.80;99.90;;;-141.84;81.02;20025.22;5064231;28;20619;-61
2023/08/10 03:32:41;;;;;;;3.13;2.37;;;11.70;99.90;;;-141.84;81.57;20008.94;5056850;28;21609;-61
2023/08/10 03:35:10;;;;;;;2.47;2.27;;;11.80;99.90;;;-141.84;82.15;20010.97;5064253;28;20235;-61
2023/08/10 03:37:38;;;;;;;2.30;2.00;;;11.70;99.90;;;-141.84;82.32;20004.88;5064300;28;20604;-62
2023/08/10 03:40:08;;;;;;;2.40;2.20;;;11.70;99.90;;;-141.84;82.41;19994.72;5063829;28;20215;-62
2023/08/10 03:42:38;;;;;;;2.87;2.23;;;11.60;99.90;;;-141.84;82.29;20027.25;5057422;28;20454;-63
2023/08/10 03:45:08;;;;;;;4.60;2.33;;;11.60;99.90;;;-141.84;81.60;19998.78;5044578;28;20274;-62
2023/08/10 03:47:36;;;;;;;4.63;2.30;;;11.60;99.90;;;-141.84;81.43;20019.13;5044706;28;20329;-62
2023/08/10 03:50:06;;;;;;;2.60;2.10;;;11.60;99.90;;;-141.84;81.79;19996.75;5043516;28;20233;-61
2023/08/10 03:52:34;;;;;;;5.27;2.67;;;11.60;99.90;;;-141.84;81.78;20043.50;5036473;28;20654;-61
2023/08/10 03:55:03;;;;;;;4.13;2.53;;;11.70;99.90;;;-141.84;81.10;20029.28;5044262;28;20209;-63
2023/08/10 03:57:32;;;;;;;3.37;2.40;;;11.70;99.90;;;-141.84;80.97;19990.66;5051375;28;20244;-62
2023/08/10 04:00:03;;;;;;;5.40;2.60;;;11.70;99.90;;;-141.84;80.83;20025.22;5063542;28;20229;-62
2023/08/10 04:02:32;;;;;;;2.87;2.20;;;11.70;99.90;;;-141.84;81.15;20023.19;5056743;28;20224;-61
2023/08/10 04:05:05;;;;;;;5.17;3.10;;;11.70;99.90;;;-141.84;81.14;20017.09;5063206;28;20286;-61
2023/08/10 04:07:37;;;;;;;2.80;2.30;;;11.70;99.90;;;-141.84;80.71;20053.66;5063598;28;20252;-61
2023/08/10 04:10:06;;;;;;;2.80;2.50;;;11.70;99.90;;;-141.84;80.21;20006.91;5063507;28;20220;-62
2023/08/10 04:12:35;;;;;;;5.53;2.80;;;;;;;-141.84;80.60;20025.22;5056306;28;20523;-61
2023/08/10 04:15:07;;;;;;;3.73;2.47;;;11.70;99.90;;;-141.84;79.86;20037.41;5043855;28;20239;-62
2023/08/10 04:17:36;;;;;;;3.77;2.37;;;11.80;99.90;;;-141.84;79.59;20045.53;5043285;28;20328;-63
2023/08/10 04:20:08;;;;;;;4.00;2.50;;;11.90;99.90;;;-141.84;79.29;20055.69;5055729;28;20252;-62
2023/08/10 04:22:37;;;;;;;3.03;2.60;;;11.90;99.90;;;-141.84;79.00;20047.56;5056165;28;22514;-63
2023/08/10 04:25:07;;;;;;;4.33;2.40;;;12.00;99.90;;;-141.84;78.51;20063.81;5063296;28;20581;-63
2023/08/10 04:27:36;;;;;;;2.97;2.20;;;12.00;99.90;;;-141.84;79.05;20082.13;5063929;28;20244;-62
2023/08/10 04:30:08;;;;;;;2.90;2.23;;;12.00;99.90;;;-141.84;77.87;20114.63;5063313;28;20266;-62
2023/08/10 04:32:37;;;;;;;3.53;2.17;;;12.10;99.90;;;-141.84;77.52;20118.69;5056424;28;20563;-62
2023/08/10 04:35:06;;;;;;;2.47;2.13;;;12.20;99.90;;;-141.84;77.49;20110.56;5063186;28;20271;-62
2023/08/10 04:37:34;;;;;;;2.60;1.83;;;12.30;99.90;;;-141.84;76.58;20169.53;5063086;28;20221;-61
2023/08/10 04:40:07;;;;;;;2.73;2.20;;;12.40;99.90;;;-141.84;75.85;20151.22;5063033;28;20228;-62
2023/08/10 04:42:38;;;;;;;3.97;2.13;;;12.50;99.90;;;-141.84;74.98;20183.75;5055952;28;20300;-62
2023/08/10 04:45:10;;;;;;;4.40;2.40;;;12.50;99.90;;;-141.84;75.52;20159.34;5043219;28;20237;-61
2023/08/10 04:47:39;;;;;;;4.20;2.30;;;12.60;99.90;;;-141.84;75.79;20163.41;5042942;28;20316;-62
2023/08/10 04:50:08;;;;;;;3.83;2.47;;;12.60;99.90;;;-141.84;75.87;20169.53;5042307;28;20245;-61
2023/08/10 04:52:36;;;;;;;3.17;2.33;;;12.60;99.90;;;-141.84;75.98;20143.09;5035223;28;20437;-62
2023/08/10 04:55:06;;;;;;;3.13;2.33;;;12.70;99.90;;;-141.84;76.32;20161.38;5045080;28;20706;-63
2023/08/10 04:57:34;;;;;;;5.13;2.40;;;12.70;99.90;;;-141.84;76.35;20153.25;5063564;28;20287;-62
2023/08/10 05:00:09;;;;;;;3.97;2.50;;;12.70;99.90;;;-141.84;76.63;20173.59;5062936;28;20282;-62
2023/08/10 05:02:38;;;;;;;2.90;2.30;;;12.70;99.90;;;-141.84;75.24;20226.44;5055043;28;20231;-61
2023/08/10 05:05:09;;;;;;;5.07;2.37;;;12.90;99.90;;;-141.84;75.46;20309.75;5062482;28;20290;-62
2023/08/10 05:07:38;;;;;;;2.40;2.20;;;13.20;99.90;;;-141.84;72.22;20490.66;5062451;28;20227;-62
2023/08/10 05:10:08;;;;;;;5.28;2.50;;;14.00;99.90;;;-141.84;66.15;20718.34;5062949;28;20247;-62
2023/08/10 05:12:39;;;;;;;3.53;2.13;;;14.70;99.90;;;-141.84;62.39;20856.56;5055663;28;21219;-62
2023/08/10 05:15:09;;;;;;;6.28;2.40;;;15.10;99.90;;;-141.84;60.12;20980.59;5062674;28;20746;-61
2023/08/10 05:17:40;;;;;;;3.47;1.88;;;15.80;99.90;;;-141.84;57.46;21126.97;5062389;28;20216;-62
2023/08/10 05:20:11;;;;;;;6.47;2.10;;;16.20;99.90;;;-141.84;57.02;21098.50;5062207;28;20224;-62
2023/08/10 05:22:41;;;;;;;2.63;2.10;;;16.30;99.90;;;-141.84;59.19;20986.69;5054737;28;20232;-61
2023/08/10 05:25:10;;;;;;;2.20;2.00;;;16.30;99.90;;;-141.84;59.74;20984.66;5062218;28;20195;-62
2023/08/10 05:27:39;;;;;;;2.60;2.00;;;16.30;99.90;;;-141.84;60.09;20939.94;5062434;28;20316;-62
2023/08/10 05:30:11;;;;;;;4.03;1.83;;;16.30;99.90;;;-141.84;59.79;20968.38;5061843;28;20224;-62
2023/08/10 05:32:43;;;;;;;4.20;1.90;;;16.30;99.90;;;-141.84;59.99;20982.63;5049011;28;20232;-62
2023/08/10 05:35:14;;;;;;;6.72;2.45;;;16.20;99.90;;;-141.84;60.17;20927.72;5059517;28;20256;-62
2023/08/10 05:37:43;;;;;;;2.30;2.10;;;16.20;99.90;;;-141.84;60.79;20915.53;5060557;28;20263;-62
2023/08/10 05:40:12;;;;;;;3.20;1.88;;;16.20;99.90;;;-141.84;61.10;20880.97;5060434;28;20208;-63
2023/08/10 05:42:42;;;;;;;3.50;2.25;;;16.10;99.90;;;-141.84;60.82;20891.13;5052712;28;20200;-63
2023/08/10 05:45:15;;;;;;;2.33;2.08;;;16.10;99.90;;;-141.84;60.93;20921.63;5040628;28;20235;-62
2023/08/10 05:47:47;;;;;;;2.72;1.98;;;16.20;99.90;;;-141.84;60.73;20956.19;5040808;28;20670;-62
2023/08/10 05:50:17;;;;;;;3.97;2.40;;;16.30;99.90;;;-141.84;59.78;21025.31;5041441;28;20241;-62
2023/08/10 05:52:46;;;;;;;3.42;2.05;;;16.40;99.90;;;-141.84;59.86;21039.53;5042025;28;20232;-63
2023/08/10 05:55:15;;;;;;;3.30;2.30;;;16.80;99.90;;;-141.84;58.66;21088.34;5042359;28;20205;-63
2023/08/10 05:57:43;;;;;;;3.47;2.25;;;17.10;99.90;;;-141.84;56.52;21171.69;5050814;28;20300;-62
2023/08/10 06:00:13;;;;;;;3.05;2.10;;;17.20;99.90;;;-141.84;56.63;21224.56;5062220;28;20228;-63
2023/08/10 06:02:42;;;;;;;3.78;2.28;;;17.30;99.90;;;-141.84;55.98;21236.75;5056015;28;20815;-61
2023/08/10 06:05:13;;;;;;;2.38;2.17;;;17.40;99.90;;;-141.84;57.48;21135.09;5060900;28;20383;-63
2023/08/10 06:07:41;;;;;;;4.72;2.33;;;17.40;99.90;;;-141.84;56.91;21183.88;5062054;28;20282;-62
2023/08/10 06:10:10;;;;;;;2.67;1.95;;;17.30;99.90;;;-141.84;57.78;21147.28;5061719;28;20653;-62
2023/08/10 06:12:38;;;;;;;3.15;2.17;;;17.00;99.90;;;-141.84;58.18;21133.06;5053972;28;20215;-62
2023/08/10 06:15:07;;;;;;;3.65;2.25;;;17.10;99.90;;;-141.84;58.40;21078.16;5043185;28;20239;-62
2023/08/10 06:17:35;;;;;;;2.88;2.10;;;17.10;99.90;;;-141.84;57.26;21133.06;5062013;28;20315;-62
2023/08/10 06:20:09;;;;;;;2.95;2.20;;;17.20;99.90;;;-141.84;57.25;21171.69;5061523;28;20772;-63
2023/08/10 06:22:39;;;;;;;2.42;2.05;;;17.10;99.90;;;-141.84;58.00;21094.44;5054058;28;20239;-62
2023/08/10 06:25:12;;;;;;;3.25;1.90;;;17.20;99.90;;;-141.84;58.21;21033.44;5062255;28;20204;-62
2023/08/10 06:27:41;;;;;;;5.15;2.00;;;17.00;99.90;;;-141.84;59.55;21025.31;5062544;28;20232;-62
2023/08/10 06:30:10;;;;;;;6.78;2.47;;;16.90;99.90;;;-141.84;59.89;20990.75;5061417;28;20229;-62
2023/08/10 06:32:39;;;;;;;2.88;2.13;;;16.70;99.90;;;-141.84;59.86;20974.50;5053803;28;20739;-62
2023/08/10 06:35:09;;;;;;;4.53;2.33;;;16.60;99.90;;;-141.84;60.40;20986.69;5061833;28;20236;-62
2023/08/10 06:37:39;;;;;;;4.30;2.30;;;16.60;99.90;;;-141.84;59.57;20964.31;5061589;28;20300;-63
2023/08/10 06:40:09;;;;;;;4.22;2.40;;;16.70;99.90;;;-141.84;60.53;20966.34;5061383;28;20319;-63
2023/08/10 06:42:38;;;;;;;3.13;2.45;;;16.70;99.90;;;-141.84;60.18;20974.50;5057758;28;20220;-63
2023/08/10 06:45:07;;;;;;;3.03;2.10;;;16.70;99.90;;;-141.84;59.05;20994.81;5045065;28;20228;-62
2023/08/10 06:47:36;;;;;;;2.85;2.00;;;16.80;99.90;;;-141.84;58.97;21033.44;5047231;28;20237;-62
2023/08/10 06:50:08;;;;;;;3.78;2.03;;;16.90;99.90;;;-141.84;59.32;21033.44;5065033;28;20251;-62
2023/08/10 06:52:36;;;;;;;4.55;2.30;;;17.10;99.90;;;-141.84;58.50;21059.88;5057575;28;20651;-62
2023/08/10 06:55:07;;;;;;;3.42;2.25;;;17.20;99.90;;;-141.84;58.38;21096.47;5064720;28;20694;-63
2023/08/10 06:57:36;;;;;;;3.70;2.20;;;17.40;99.90;;;-141.84;58.41;21084.28;5065670;28;20268;-62
2023/08/10 07:00:07;;;;;;;2.83;2.17;;;17.50;99.90;;;-141.84;57.34;21155.44;5064302;28;20244;-62
2023/08/10 07:02:38;;;;;;;3.45;2.22;;;17.50;99.90;;;-141.84;57.56;21167.63;5057481;28;20240;-64
2023/08/10 07:05:07;;;;;;;2.45;1.90;;;17.60;99.90;;;-141.84;57.45;21116.78;5064959;28;20247;-62
2023/08/10 07:07:36;;;;;;;4.43;2.35;;;17.60;99.90;;;-141.84;58.20;21108.66;5065463;28;20232;-62
2023/08/10 07:10:08;;;;;;;4.60;2.17;;;17.60;99.90;;;-141.84;57.57;21135.09;5064506;28;20236;-62
2023/08/10 07:12:36;;;;;;;2.22;2.03;;;17.60;99.90;;;-141.84;56.60;21098.50;5057632;28;20212;-62
2023/08/10 07:15:07;;;;;;;2.70;2.10;;;17.70;99.90;;;-141.84;56.71;21175.75;5062322;28;20282;-61
2023/08/10 07:17:35;;;;;;;3.42;2.40;;;17.70;99.90;;;-141.84;57.47;21108.66;5064616;28;20426;-62
2023/08/10 07:20:05;;;;;;;2.65;2.45;;;17.60;99.90;;;-141.84;56.98;21167.63;5064676;28;20224;-62
2023/08/10 07:22:33;;;;;;;2.67;2.30;;;17.60;99.90;;;-141.84;57.65;21151.34;5057503;28;20228;-63
2023/08/10 07:25:09;;;;;;;6.63;2.30;;;17.60;99.90;;;-141.84;58.56;21116.78;5064018;28;20205;-62
2023/08/10 07:27:37;;;;;;;4.03;2.15;;;17.60;99.90;;;-141.84;57.84;21114.75;5064904;28;20208;-62
2023/08/10 07:30:07;;;;;;;2.60;2.08;;;17.60;99.90;;;-141.84;56.98;21114.75;5064247;28;20651;-63
2023/08/10 07:32:36;;;;;;;4.95;2.33;;;17.60;99.90;;;-141.84;56.65;21104.59;5055810;28;20228;-63
2023/08/10 07:35:04;;;;;;;3.58;2.20;;;17.60;99.90;;;-141.84;57.42;21114.75;5064345;28;20274;-62
2023/08/10 07:37:34;;;;;;;2.10;1.90;;;17.60;99.90;;;-141.84;57.81;21122.91;5064678;28;20303;-62
2023/08/10 07:40:02;;;;;;;2.30;1.90;;;17.60;99.90;;;-141.84;58.02;21100.53;5064476;28;20698;-62
2023/08/10 07:42:32;;;;;;;3.20;2.20;;;17.70;99.90;;;-141.84;57.48;21118.84;5057216;28;20227;-63
2023/08/10 07:45:00;;;;;;;2.80;2.50;;;17.70;99.90;;;-141.84;57.36;21151.34;5060054;28;20240;-62
2023/08/10 07:47:28;;;;;;;2.75;2.28;;;17.70;99.90;;;-141.84;57.43;21145.25;5063916;28;20240;-62
2023/08/10 07:49:56;;;;;;;2.60;2.20;;;17.80;99.90;;;-141.84;58.14;21155.44;5063649;28;20228;-62
2023/08/10 07:52:25;;;;;;;3.72;2.28;;;17.80;99.90;;;-141.84;58.33;21145.25;5055427;28;20228;-62
2023/08/10 07:54:53;;;;;;;2.30;2.03;;;17.80;99.90;;;-141.84;58.51;21179.81;5064850;28;20452;-62
2023/08/10 07:57:21;;;;;;;2.08;1.80;;;17.90;99.90;;;-141.84;58.22;21163.56;5063992;28;20252;-63
2023/08/10 07:59:50;;;;;;;4.40;2.20;;;17.90;99.90;;;-141.84;58.36;21175.75;5063426;28;20238;-62
2023/08/10 08:02:18;;;;;;;2.53;2.25;;;17.90;99.90;;;-141.84;58.47;21204.22;5060582;28;20312;-62
2023/08/10 08:04:47;;;;;;;3.63;2.67;;;18.00;99.90;;;-141.84;58.34;21218.44;5063632;28;20298;-62
2023/08/10 08:07:17;;;;;;;6.00;2.78;;;18.00;99.90;;;-141.84;58.07;21167.63;5063415;28;20208;-64
2023/08/10 08:09:45;;;;;;;4.13;2.88;;;18.10;99.90;;;-141.84;56.83;21181.84;5064260;28;20600;-63
2023/08/10 08:12:13;;;;;;;2.78;2.42;;;18.20;99.90;;;-141.84;57.53;21206.25;5063668;28;20236;-63
2023/08/10 08:14:43;;;;;;;4.10;2.20;;;18.20;99.90;;;-141.84;57.52;21238.78;5049967;28;20232;-61
2023/08/10 08:17:12;;;;;;;2.78;2.50;;;18.20;99.90;;;-141.84;57.03;21255.03;5062941;28;20617;-63
2023/08/10 08:19:40;;;;;;;2.85;2.55;;;18.30;99.90;;;-141.84;57.01;21273.34;5063875;28;20311;-62
2023/08/10 08:22:08;;;;;;;2.88;2.42;;;18.40;99.90;;;-141.84;56.56;21273.34;5063292;28;20215;-63
2023/08/10 08:24:37;;;;;;;2.58;2.28;;;18.40;99.90;;;-141.84;57.08;21261.16;5056440;28;20300;-63
2023/08/10 08:27:05;;;;;;;3.42;2.45;;;18.50;99.90;;;-141.84;56.98;21314.00;5063339;28;20255;-62
2023/08/10 08:29:34;;;;;;;2.80;2.10;;;18.60;99.90;;;-141.84;56.13;21352.63;5063267;28;20283;-65
2023/08/10 08:32:02;;;;;;;3.58;2.33;;;18.70;99.90;;;-141.84;56.30;21413.63;5062547;28;20311;-62
2023/08/10 08:34:35;;;;;;;4.60;2.70;;;18.90;99.90;;;-141.84;54.19;21417.69;5055986;28;20229;-63
2023/08/10 08:37:03;;;;;;;2.42;2.22;;;19.00;99.90;;;-141.84;54.05;21462.44;5063378;28;20205;-63
2023/08/10 08:39:32;;;;;;;2.60;1.90;;;19.10;99.90;;;-141.84;52.04;21490.91;5063838;28;20648;-63
2023/08/10 08:42:02;;;;;;;3.08;1.88;;;19.30;99.90;;;-141.84;52.12;21523.44;5063618;28;20242;-62
2023/08/10 08:44:31;;;;;;;2.30;2.10;;;19.40;99.90;;;-141.84;51.98;21527.50;5048010;28;20231;-63
2023/08/10 08:47:00;;;;;;;3.03;2.30;;;19.50;99.90;;;-141.84;51.14;21507.16;5062043;28;20227;-61
2023/08/10 08:49:28;;;;;;;2.35;2.15;;;19.60;99.90;;;-141.84;52.14;21499.03;5062909;28;20232;-63
2023/08/10 08:51:58;;;;;;;2.95;2.17;;;19.60;99.90;;;-141.84;52.71;21547.81;5045468;28;20712;-63
2023/08/10 08:54:27;;;;;;;2.75;2.17;;;19.60;99.90;;;-141.84;52.56;21553.94;5035224;28;20794;-63
2023/08/10 08:56:55;;;;;;;4.25;2.30;;;19.70;99.90;;;-141.84;51.95;21574.25;5037326;28;20299;-63
2023/08/10 08:59:23;;;;;;;3.70;2.42;;;19.70;99.90;;;-141.84;52.51;21513.25;5042826;28;20228;-63
2023/08/10 09:01:52;;;;;;;4.05;2.30;;;19.70;99.90;;;-141.84;52.40;21501.06;5042118;28;20232;-62
2023/08/10 09:04:25;;;;;;;2.83;2.38;;;19.60;99.90;;;-141.84;53.15;21501.06;5034657;28;20248;-62
2023/08/10 09:06:54;;;;;;;2.45;2.20;;;19.50;99.90;;;-141.84;53.66;21486.81;5042964;28;20197;-62
2023/08/10 09:09:23;;;;;;;2.20;1.95;;;19.50;99.90;;;-141.84;53.57;21525.47;5048603;28;20315;-63
2023/08/10 09:11:51;;;;;;;3.33;2.15;;;19.60;99.90;;;-141.84;53.40;21551.91;5062364;28;20324;-62
2023/08/10 09:14:19;;;;;;;3.35;2.80;;;19.60;99.90;;;-141.84;52.06;21598.66;5031259;28;20213;-62
2023/08/10 09:16:48;;;;;;;3.65;2.10;;;19.80;99.90;;;-141.84;52.75;21553.94;5041702;28;20237;-63
2023/08/10 09:19:18;;;;;;;4.03;2.63;;;19.80;99.90;;;-141.84;52.53;21553.94;5046585;28;20193;-62
2023/08/10 09:21:47;;;;;;;3.05;2.65;;;19.70;99.90;;;-141.84;52.61;21551.91;5063197;28;20214;-63
2023/08/10 09:24:15;;;;;;;6.28;2.83;;;19.70;99.90;;;-141.84;52.70;21519.34;5061135;28;20807;-63
2023/08/10 09:26:44;;;;;;;4.55;2.97;;;19.70;99.90;;;-141.84;52.46;21529.53;5036692;28;20268;-62
2023/08/10 09:29:12;;;;;;;3.63;2.85;;;19.70;99.90;;;-141.84;53.18;21541.72;5041020;28;20222;-63
2023/08/10 09:31:43;;;;;;;3.55;2.83;;;19.70;99.90;;;-141.84;52.49;21549.84;5026770;28;20304;-62
2023/08/10 09:34:13;;;;;;;4.28;3.10;;;19.80;99.90;;;-141.84;52.30;21619.00;5025722;28;20198;-61
2023/08/10 09:36:53;;;;;;;3.38;3.05;;;19.80;99.90;;;-141.84;52.11;21525.47;5040623;28;20259;-61
2023/08/10 09:39:22;;;;;;;3.65;2.90;;;19.90;99.90;;;-141.84;51.88;21602.72;5062008;28;20260;-62
2023/08/10 09:41:56;;;;;;;3.42;2.97;;;20.00;99.90;;;-141.84;52.44;21558.00;5061831;28;20233;-63
2023/08/10 09:44:25;;;;;;;4.55;2.83;;;19.90;99.90;;;-141.84;51.85;21580.34;5033826;28;20216;-62
2023/08/10 09:46:58;;;;;;;4.05;2.60;;;19.90;99.90;;;-141.84;51.61;21576.28;5041208;28;20224;-62
2023/08/10 09:49:26;;;;;;;4.97;2.58;;;19.90;99.90;;;-141.84;50.54;21610.84;5042422;28;20237;-61
2023/08/10 09:51:59;;;;;;;4.07;2.10;;;19.90;99.90;;;-141.84;50.56;21596.63;5061053;28;20310;-62
2023/08/10 09:54:28;;;;;;;2.45;1.98;;;19.90;99.90;;;-141.84;51.22;21651.53;5054141;28;20231;-63
2023/08/10 09:56:59;;;;;;;2.28;2.08;;;20.00;99.90;;;-141.84;50.92;21643.38;5062032;28;20798;-62
2023/08/10 09:59:28;;;;;;;4.90;2.67;;;20.10;99.90;;;-141.84;50.23;21700.31;5061878;28;20217;-62
2023/08/10 10:01:58;;;;;;;4.15;2.20;;;20.20;99.90;;;-141.84;50.07;21708.47;5061736;28;20254;-63
2023/08/10 10:04:28;;;;;;;2.70;2.40;;;20.30;99.90;;;-141.84;49.69;21690.16;5054467;28;20221;-63
2023/08/10 10:06:58;;;;;;;2.88;2.10;;;20.30;99.90;;;-141.84;49.79;21734.88;5062079;28;20204;-64
2023/08/10 10:09:31;;;;;;;2.65;2.40;;;20.30;99.90;;;-141.84;49.68;21753.19;5062433;28;20284;-64
2023/08/10 10:12:04;;;;;;;2.63;2.25;;;20.50;99.90;;;-141.84;49.76;21791.81;5061925;28;20230;-63
2023/08/10 10:14:33;;;;;;;2.85;2.47;;;20.60;99.90;;;-141.84;48.06;21879.25;5041553;28;20331;-61
2023/08/10 10:17:03;;;;;;;2.63;2.42;;;20.90;99.90;;;-141.84;47.32;21978.91;5064168;28;20228;-63